Great Meadows, New Jersey
Current Conditions -  °F | °C
As of 10:53 AM on Sunday 21 Dec 2014 (Local Time) from KSMQ Reporting Station
Overcast Overcast  
Wind Chill: 29°   Ceiling: 2200
Heat Index: 34°   Visibility: 10mi
Dew Point: 25°   Wind: 6mph
Humidity: 70%   Direction: 310°NW
Pressure: 30.31"   Gusts: NA
Location:  40.87°N, 74.91°W
Report Text: KSMQ 211553Z AUTO 31005KT 10SM BKN022 OVC029 01/M04 A3031 RMK AO2 SLP268 T00111039
Loading
Personal Weather Stations






























Interactive Weather Map New forecast layout! Learn more

10-Day Weather Forecast

Advertisements
Track Severe Weather on mobile